createdAt,value
2023-05-05T00:01:02.426Z,12.73
2023-05-05T00:03:29.842Z,12.73
2023-05-05T00:05:57.641Z,12.74
2023-05-05T00:08:24.744Z,12.74
2023-05-05T00:10:52.611Z,12.75
2023-05-05T00:13:20.534Z,12.76
2023-05-05T00:15:49.182Z,12.78
2023-05-05T00:18:16.957Z,12.79
2023-05-05T00:20:44.709Z,12.80
2023-05-05T00:23:11.591Z,12.80
2023-05-05T00:25:38.711Z,12.79
2023-05-05T00:28:05.767Z,12.79
2023-05-05T00:30:33.741Z,12.80
2023-05-05T00:33:00.766Z,12.79
2023-05-05T00:35:27.627Z,12.76
2023-05-05T00:37:55.312Z,12.76
2023-05-05T00:40:22.226Z,12.78
2023-05-05T00:42:50.948Z,12.80
2023-05-05T00:45:19.042Z,12.83
2023-05-05T00:47:56.978Z,12.84
2023-05-05T00:50:29.252Z,12.86
2023-05-05T00:53:01.518Z,12.87
2023-05-05T00:55:29.470Z,12.88
2023-05-05T00:57:57.340Z,12.90
2023-05-05T01:00:24.714Z,12.90
2023-05-05T01:02:52.876Z,12.92
2023-05-05T01:05:20.173Z,12.92
2023-05-05T01:07:57.109Z,12.94
2023-05-05T01:10:38.803Z,12.92
2023-05-05T01:13:15.486Z,12.91
2023-05-05T01:15:51.103Z,12.91
2023-05-05T01:18:43.054Z,12.91
2023-05-05T01:21:15.828Z,12.90
2023-05-05T01:24:12.073Z,12.89
2023-05-05T01:27:04.817Z,12.88
2023-05-05T01:29:38.749Z,12.88
2023-05-05T01:32:13.268Z,12.88
2023-05-05T01:35:02.061Z,12.86
2023-05-05T01:37:34.129Z,12.84
2023-05-05T01:40:04.129Z,12.82
2023-05-05T01:42:31.182Z,12.79
2023-05-05T01:44:58.158Z,12.76
2023-05-05T01:47:25.089Z,12.69
2023-05-05T01:49:52.180Z,12.66
2023-05-05T01:52:19.117Z,12.65
2023-05-05T01:54:45.958Z,12.65
2023-05-05T01:57:13.214Z,12.62
2023-05-05T01:59:40.483Z,12.61
2023-05-05T02:02:09.121Z,12.61
2023-05-05T02:04:37.458Z,12.60
2023-05-05T02:07:04.405Z,12.60
2023-05-05T02:09:31.433Z,12.60
2023-05-05T02:11:58.610Z,12.61
2023-05-05T02:14:27.205Z,12.62
2023-05-05T02:16:54.463Z,12.63
2023-05-05T02:19:21.720Z,12.61
2023-05-05T02:21:49.382Z,12.58
2023-05-05T02:24:16.336Z,12.54
2023-05-05T02:26:43.359Z,12.50
2023-05-05T02:29:13.019Z,12.47
2023-05-05T02:31:44.261Z,12.44
2023-05-05T02:34:11.715Z,12.39
2023-05-05T02:36:39.844Z,12.34
2023-05-05T02:39:14.911Z,12.30
2023-05-05T02:41:43.042Z,12.23
2023-05-05T02:44:15.489Z,12.20
2023-05-05T02:46:43.017Z,12.19
2023-05-05T02:49:09.952Z,12.18
2023-05-05T02:51:37.467Z,12.17
2023-05-05T02:54:07.092Z,12.17
2023-05-05T02:56:41.350Z,12.16
2023-05-05T02:59:39.366Z,12.14
2023-05-05T03:02:16.641Z,12.10
2023-05-05T03:04:47.288Z,12.06
2023-05-05T03:07:18.656Z,12.04
2023-05-05T03:10:10.986Z,12.03
2023-05-05T03:12:53.812Z,12.01
2023-05-05T03:15:27.886Z,12.00
2023-05-05T03:17:55.065Z,11.98
2023-05-05T03:20:22.498Z,11.96
2023-05-05T03:22:49.960Z,11.94
2023-05-05T03:25:16.922Z,11.93
2023-05-05T03:27:44.075Z,11.93
2023-05-05T03:30:12.895Z,11.93
2023-05-05T03:32:45.599Z,11.90
2023-05-05T03:35:12.657Z,11.88
2023-05-05T03:37:39.729Z,11.88
2023-05-05T03:40:08.030Z,11.86
2023-05-05T03:42:35.194Z,11.86
2023-05-05T03:45:02.349Z,11.85
2023-05-05T03:47:29.627Z,11.85
2023-05-05T03:49:56.888Z,11.85
2023-05-05T03:52:23.812Z,11.85
2023-05-05T03:54:51.074Z,11.85
2023-05-05T03:57:18.440Z,11.84
2023-05-05T03:59:45.724Z,11.79
2023-05-05T04:02:12.931Z,11.71
2023-05-05T04:04:40.550Z,11.67
2023-05-05T04:07:07.575Z,11.65
2023-05-05T04:09:34.553Z,11.62
2023-05-05T04:12:03.243Z,11.56
2023-05-05T04:14:30.271Z,11.49
2023-05-05T04:16:58.240Z,11.47
2023-05-05T04:19:25.193Z,11.45
2023-05-05T04:21:52.172Z,11.44
2023-05-05T04:24:23.406Z,11.44
2023-05-05T04:26:53.229Z,11.42
2023-05-05T04:29:20.367Z,11.40
2023-05-05T04:31:47.603Z,11.39
2023-05-05T04:34:14.760Z,11.41
2023-05-05T04:36:41.812Z,11.41
2023-05-05T04:39:09.298Z,11.40
2023-05-05T04:41:36.562Z,11.39
2023-05-05T04:44:03.573Z,11.39
2023-05-05T04:46:31.112Z,11.40
2023-05-05T04:48:59.251Z,11.43
2023-05-05T04:51:27.771Z,11.45
2023-05-05T04:53:55.988Z,11.45
2023-05-05T04:56:22.813Z,11.45
2023-05-05T04:58:50.449Z,11.48
2023-05-05T05:01:17.506Z,11.48
2023-05-05T05:03:44.471Z,11.49
2023-05-05T05:06:12.341Z,11.52
2023-05-05T05:08:39.266Z,11.56
2023-05-05T05:11:06.621Z,11.60
2023-05-05T05:13:33.901Z,11.67
2023-05-05T05:16:01.609Z,11.71
2023-05-05T05:18:28.552Z,11.79
2023-05-05T05:20:56.374Z,11.86
2023-05-05T05:23:23.946Z,11.98
2023-05-05T05:25:51.296Z,12.08
2023-05-05T05:28:19.069Z,12.11
2023-05-05T05:30:49.621Z,12.17
2023-05-05T05:33:16.550Z,12.27
2023-05-05T05:35:44.298Z,12.42
2023-05-05T05:38:11.374Z,12.57
2023-05-05T05:40:38.326Z,12.74
2023-05-05T05:43:05.212Z,12.93
2023-05-05T05:45:32.836Z,13.12
2023-05-05T05:47:59.924Z,13.29
2023-05-05T05:50:28.846Z,13.48
2023-05-05T05:52:56.669Z,13.62
2023-05-05T05:55:24.082Z,13.73
2023-05-05T05:57:51.590Z,13.81
2023-05-05T06:00:20.386Z,13.91
2023-05-05T06:02:51.414Z,13.97
2023-05-05T06:05:19.784Z,14.01
2023-05-05T06:07:46.998Z,14.03
2023-05-05T06:10:26.660Z,14.06
2023-05-05T06:12:58.310Z,14.15
2023-05-05T06:15:26.046Z,14.25
2023-05-05T06:17:53.868Z,14.36
2023-05-05T06:20:21.891Z,14.42
2023-05-05T06:22:48.933Z,14.49
2023-05-05T06:25:16.686Z,14.64
2023-05-05T06:27:43.957Z,14.88
2023-05-05T06:30:11.614Z,15.15
2023-05-05T06:32:38.810Z,15.43
2023-05-05T06:35:07.274Z,15.72
2023-05-05T06:37:34.178Z,16.02
2023-05-05T06:40:01.478Z,16.26
2023-05-05T06:42:28.534Z,16.48
2023-05-05T06:44:56.562Z,16.64
2023-05-05T06:47:23.455Z,16.76
2023-05-05T06:49:50.330Z,16.91
2023-05-05T06:52:17.256Z,17.12
2023-05-05T06:54:44.204Z,17.32
2023-05-05T06:57:11.364Z,17.70
2023-05-05T06:59:38.537Z,18.30
2023-05-05T07:02:05.475Z,18.75
2023-05-05T07:04:32.433Z,18.96
2023-05-05T07:06:59.382Z,18.94
2023-05-05T07:09:26.199Z,18.87
2023-05-05T07:11:53.178Z,18.88
2023-05-05T07:14:21.528Z,18.87
2023-05-05T07:16:50.895Z,18.79
2023-05-05T07:19:17.850Z,18.60
2023-05-05T07:21:45.048Z,18.35
2023-05-05T07:24:12.144Z,18.06
2023-05-05T07:26:38.991Z,17.74
2023-05-05T07:29:07.263Z,17.53
2023-05-05T07:31:34.221Z,17.39
2023-05-05T07:34:01.173Z,17.26
2023-05-05T07:36:28.506Z,17.16
2023-05-05T07:38:55.480Z,17.09
2023-05-05T07:41:22.435Z,17.02
2023-05-05T07:43:49.478Z,17.13
2023-05-05T07:46:16.453Z,17.30
2023-05-05T07:48:43.350Z,17.28
2023-05-05T07:51:11.046Z,17.19
2023-05-05T07:53:37.922Z,17.16
2023-05-05T07:56:04.878Z,17.14
2023-05-05T07:58:31.796Z,17.13
2023-05-05T08:00:58.850Z,17.10
2023-05-05T08:03:26.055Z,17.04
2023-05-05T08:05:54.400Z,16.95
2023-05-05T08:08:25.073Z,16.84
2023-05-05T08:10:53.295Z,16.72
2023-05-05T08:13:20.603Z,16.62
2023-05-05T08:15:47.869Z,16.55
2023-05-05T08:18:14.928Z,16.48
2023-05-05T08:20:41.975Z,16.46
2023-05-05T08:23:08.907Z,16.43
2023-05-05T08:25:36.274Z,16.39
2023-05-05T08:28:03.316Z,16.41
2023-05-05T08:30:30.272Z,16.47
2023-05-05T08:32:57.528Z,16.57
2023-05-05T08:35:24.904Z,16.75
2023-05-05T08:40:43.335Z,17.12
2023-05-05T08:43:10.292Z,17.26
2023-05-05T08:45:37.236Z,17.39
2023-05-05T08:48:05.057Z,17.51
2023-05-05T08:50:32.185Z,17.54
2023-05-05T08:53:16.266Z,17.51
2023-05-05T08:55:51.560Z,17.46
2023-05-05T08:58:19.164Z,17.42
2023-05-05T09:00:46.711Z,17.29
2023-05-05T09:03:13.856Z,17.19
2023-05-05T09:05:41.908Z,17.11
2023-05-05T09:08:11.769Z,17.07
2023-05-05T09:10:42.196Z,17.07
2023-05-05T09:13:09.112Z,17.09
2023-05-05T09:15:36.939Z,17.10
2023-05-05T09:18:06.328Z,17.10
2023-05-05T09:20:37.425Z,17.12
2023-05-05T09:23:12.183Z,17.15
2023-05-05T09:25:39.935Z,17.21
2023-05-05T09:28:17.400Z,17.23
2023-05-05T09:30:45.809Z,17.21
2023-05-05T09:33:13.174Z,17.15
2023-05-05T09:35:49.381Z,17.10
2023-05-05T09:38:16.358Z,17.06
2023-05-05T09:40:47.920Z,17.01
2023-05-05T09:43:15.961Z,16.94
2023-05-05T09:45:43.384Z,16.89
2023-05-05T09:48:26.666Z,16.87
2023-05-05T09:50:54.163Z,16.84
2023-05-05T09:53:21.220Z,16.83
2023-05-05T09:55:56.290Z,16.82
2023-05-05T09:58:27.561Z,16.80
2023-05-05T10:00:57.937Z,16.80
2023-05-05T10:03:25.601Z,16.78
2023-05-05T10:05:54.186Z,16.79
2023-05-05T10:08:27.896Z,16.81
2023-05-05T10:10:59.766Z,16.82
2023-05-05T10:13:27.322Z,16.81
2023-05-05T10:15:55.848Z,16.80
2023-05-05T10:18:28.560Z,16.81
2023-05-05T10:20:59.327Z,16.82
2023-05-05T10:23:50.544Z,16.81
2023-05-05T10:26:17.592Z,16.82
2023-05-05T10:28:45.762Z,16.82
2023-05-05T10:31:26.499Z,16.85
2023-05-05T10:33:57.734Z,16.88
2023-05-05T10:36:25.002Z,16.91
2023-05-05T10:38:55.091Z,16.96
2023-05-05T10:41:22.730Z,16.99
2023-05-05T10:43:49.787Z,16.99
2023-05-05T10:46:16.795Z,17.00
2023-05-05T10:49:16.774Z,17.02
2023-05-05T10:51:49.124Z,17.02
2023-05-05T10:54:25.116Z,17.03
2023-05-05T10:56:52.025Z,17.06
2023-05-05T10:59:37.770Z,17.12
2023-05-05T11:02:31.897Z,17.21
2023-05-05T11:05:18.357Z,17.31
2023-05-05T11:07:46.547Z,17.36
2023-05-05T11:10:14.688Z,17.39
2023-05-05T11:12:54.383Z,17.46
2023-05-05T11:15:27.554Z,17.59
2023-05-05T11:17:57.921Z,17.73
2023-05-05T11:20:37.373Z,17.82
2023-05-05T11:23:04.387Z,17.89
2023-05-05T11:25:35.564Z,17.99
2023-05-05T11:28:19.055Z,18.04
2023-05-05T11:30:55.298Z,18.04
2023-05-05T11:33:26.585Z,18.04
2023-05-05T11:36:01.838Z,18.07
2023-05-05T11:38:36.647Z,18.10
2023-05-05T11:41:11.681Z,18.15
2023-05-05T11:43:39.100Z,18.24
2023-05-05T11:46:13.134Z,18.29
2023-05-05T11:48:49.928Z,18.32
2023-05-05T11:51:17.533Z,18.30
2023-05-05T11:53:45.163Z,18.25
2023-05-05T11:56:12.932Z,18.24
2023-05-05T11:58:40.114Z,18.25
2023-05-05T12:01:07.684Z,18.28
2023-05-05T12:03:36.412Z,18.31
2023-05-05T12:06:07.414Z,18.33
2023-05-05T12:08:41.354Z,18.32
2023-05-05T12:11:09.477Z,18.28
2023-05-05T12:13:36.370Z,18.24
2023-05-05T12:16:13.415Z,18.21
2023-05-05T12:18:40.766Z,18.18
2023-05-05T12:21:17.546Z,18.17
2023-05-05T12:23:44.837Z,18.11
2023-05-05T12:26:25.390Z,18.05
2023-05-05T12:28:52.314Z,18.03
2023-05-05T12:31:19.255Z,18.01
2023-05-05T12:33:46.630Z,18.03
2023-05-05T12:36:13.442Z,18.02
2023-05-05T12:38:40.529Z,18.03
2023-05-05T12:41:07.597Z,18.03
2023-05-05T12:43:35.396Z,18.03
2023-05-05T12:46:10.731Z,18.05
2023-05-05T12:48:38.789Z,18.07
2023-05-05T12:51:19.897Z,18.09
2023-05-05T12:53:47.948Z,18.08
2023-05-05T12:56:43.845Z,18.04
2023-05-05T12:59:11.303Z,18.00
2023-05-05T13:01:51.199Z,17.99
2023-05-05T13:04:18.836Z,17.98
2023-05-05T13:06:47.143Z,17.97
2023-05-05T13:09:24.198Z,17.98
2023-05-05T13:11:51.340Z,17.98
2023-05-05T13:14:18.400Z,17.99
2023-05-05T13:16:45.557Z,18.01
2023-05-05T13:19:12.611Z,18.00
2023-05-05T13:21:39.652Z,17.96
2023-05-05T13:24:20.800Z,17.92
2023-05-05T13:26:50.892Z,17.92
2023-05-05T13:29:18.228Z,17.90
2023-05-05T13:31:45.501Z,17.90
2023-05-05T13:34:12.626Z,17.93
2023-05-05T13:36:39.690Z,17.95
2023-05-05T13:39:07.154Z,17.97
2023-05-05T13:41:34.144Z,17.99
2023-05-05T13:44:01.059Z,18.01
2023-05-05T13:46:28.060Z,18.02
2023-05-05T13:48:56.862Z,18.04
2023-05-05T13:51:23.972Z,18.06
2023-05-05T13:53:51.263Z,18.07
2023-05-05T13:56:19.279Z,18.08
2023-05-05T13:58:46.640Z,18.09
2023-05-05T14:01:13.593Z,18.10
2023-05-05T14:03:40.719Z,18.12
2023-05-05T14:06:09.338Z,18.19
2023-05-05T14:08:36.698Z,18.24
2023-05-05T14:11:03.962Z,18.28
2023-05-05T14:13:31.324Z,18.30
2023-05-05T14:15:58.588Z,18.31
2023-05-05T14:18:26.152Z,18.35
2023-05-05T14:20:53.164Z,18.37
2023-05-05T14:23:20.154Z,18.38
2023-05-05T14:25:47.208Z,18.38
2023-05-05T14:28:14.070Z,18.41
2023-05-05T14:30:40.939Z,18.41
2023-05-05T14:33:07.950Z,18.40
2023-05-05T14:35:35.064Z,18.38
2023-05-05T14:38:01.970Z,18.34
2023-05-05T14:40:30.435Z,18.33
2023-05-05T14:42:57.942Z,18.34
2023-05-05T14:45:24.856Z,18.35
2023-05-05T14:51:08.196Z,18.34
2023-05-05T14:53:35.150Z,18.34
2023-05-05T14:56:02.638Z,18.30
2023-05-05T14:58:55.247Z,18.26
2023-05-05T15:01:22.433Z,18.24
2023-05-05T15:03:49.438Z,18.22
2023-05-05T15:06:16.630Z,18.21
2023-05-05T15:08:43.517Z,18.20
2023-05-05T15:11:10.506Z,18.16
2023-05-05T15:13:40.323Z,18.10
2023-05-05T15:16:08.216Z,18.05
2023-05-05T15:18:35.063Z,17.99
2023-05-05T15:21:01.996Z,17.95
2023-05-05T15:23:28.801Z,17.91
2023-05-05T15:25:55.718Z,17.89
2023-05-05T15:28:22.567Z,17.88
2023-05-05T15:30:49.379Z,17.87
2023-05-05T15:33:17.080Z,17.86
2023-05-05T15:35:44.216Z,17.86
2023-05-05T15:38:11.161Z,17.85
2023-05-05T15:40:37.940Z,17.84
2023-05-05T15:43:04.760Z,17.82
2023-05-05T15:45:32.228Z,17.81
2023-05-05T15:47:59.184Z,17.78
2023-05-05T15:50:26.086Z,17.74
2023-05-05T15:52:57.043Z,17.70
2023-05-05T15:55:24.247Z,17.65
2023-05-05T15:57:51.486Z,17.61
2023-05-05T16:00:18.538Z,17.56
2023-05-05T16:02:45.686Z,17.52
2023-05-05T16:05:12.986Z,17.49
2023-05-05T16:07:39.823Z,17.48
2023-05-05T16:10:08.394Z,17.45
2023-05-05T16:12:35.231Z,17.44
2023-05-05T16:15:02.154Z,17.41
2023-05-05T16:17:29.033Z,17.40
2023-05-05T16:19:56.094Z,17.37
2023-05-05T16:22:23.041Z,17.36
2023-05-05T16:24:49.995Z,17.34
2023-05-05T16:27:16.885Z,17.32
2023-05-05T16:29:43.927Z,17.30
2023-05-05T16:32:11.192Z,17.29
2023-05-05T16:34:38.085Z,17.26
2023-05-05T16:37:05.056Z,17.22
2023-05-05T16:39:33.155Z,17.16
2023-05-05T16:42:00.194Z,17.05
2023-05-05T16:44:27.241Z,16.97
2023-05-05T16:46:54.190Z,16.91
2023-05-05T16:49:21.248Z,16.84
2023-05-05T16:51:48.217Z,16.79
2023-05-05T16:54:15.078Z,16.74
2023-05-05T16:56:41.878Z,16.70
2023-05-05T16:59:08.856Z,16.63
2023-05-05T17:01:35.733Z,16.56
2023-05-05T17:04:02.860Z,16.47
2023-05-05T17:06:33.129Z,16.38
2023-05-05T17:09:00.135Z,16.31
2023-05-05T17:11:27.083Z,16.26
2023-05-05T17:13:54.041Z,16.21
2023-05-05T17:16:20.928Z,16.16
2023-05-05T17:18:47.936Z,16.11
2023-05-05T17:21:15.096Z,16.06
2023-05-05T17:23:42.057Z,16.02
2023-05-05T17:26:08.952Z,15.96
2023-05-05T17:28:35.770Z,15.92
2023-05-05T17:31:02.859Z,15.88
2023-05-05T17:33:29.664Z,15.83
2023-05-05T17:35:56.596Z,15.76
2023-05-05T17:38:23.442Z,15.74
2023-05-05T17:40:50.393Z,15.70
2023-05-05T17:43:17.348Z,15.67
2023-05-05T17:45:44.316Z,15.62
2023-05-05T17:48:11.248Z,15.57
2023-05-05T17:50:38.116Z,15.54
2023-05-05T17:53:05.162Z,15.51
2023-05-05T17:55:32.105Z,15.48
2023-05-05T17:57:59.156Z,15.44
2023-05-05T18:00:26.621Z,15.41
2023-05-05T18:02:53.574Z,15.38
2023-05-05T18:05:21.043Z,15.35
2023-05-05T18:07:47.863Z,15.31
2023-05-05T18:10:14.733Z,15.24
2023-05-05T18:12:41.872Z,15.19
2023-05-05T18:15:09.804Z,15.16
2023-05-05T18:17:37.642Z,15.15
2023-05-05T18:20:07.090Z,15.13
2023-05-05T18:22:34.503Z,15.12
2023-05-05T18:25:01.560Z,15.10
2023-05-05T18:27:28.643Z,15.06
2023-05-05T18:29:55.752Z,15.04
2023-05-05T18:32:23.415Z,15.00
2023-05-05T18:34:50.490Z,14.96
2023-05-05T18:37:17.309Z,14.94
2023-05-05T18:39:45.250Z,14.94
2023-05-05T18:42:13.148Z,14.94
2023-05-05T18:44:40.163Z,14.92
2023-05-05T18:47:07.976Z,14.90
2023-05-05T18:49:35.433Z,14.87
2023-05-05T18:52:02.384Z,14.86
2023-05-05T18:54:29.260Z,14.84
2023-05-05T18:56:56.127Z,14.80
2023-05-05T18:59:23.073Z,14.77
2023-05-05T19:01:49.981Z,14.75
2023-05-05T19:04:30.194Z,14.72
2023-05-05T19:06:59.183Z,14.70
2023-05-05T19:09:26.182Z,14.67
2023-05-05T19:11:53.082Z,14.65
2023-05-05T19:14:19.944Z,14.61
2023-05-05T19:16:46.907Z,14.54
2023-05-05T19:19:13.932Z,14.51
2023-05-05T19:21:40.924Z,14.49
2023-05-05T19:24:11.945Z,14.46
2023-05-05T19:26:38.807Z,14.43
2023-05-05T19:29:05.935Z,14.41
2023-05-05T19:31:32.897Z,14.36
2023-05-05T19:34:01.595Z,14.33
2023-05-05T19:36:30.062Z,14.29
2023-05-05T19:38:56.911Z,14.25
2023-05-05T19:41:23.861Z,14.24
2023-05-05T19:43:50.920Z,14.22
2023-05-05T19:46:17.905Z,14.20
2023-05-05T19:48:46.296Z,14.18
2023-05-05T19:51:13.404Z,14.14
2023-05-05T19:53:42.415Z,14.08
2023-05-05T19:56:10.072Z,14.05
2023-05-05T19:59:00.485Z,13.99
2023-05-05T20:01:28.594Z,13.96
2023-05-05T20:03:56.243Z,13.94
2023-05-05T20:06:23.409Z,13.92
2023-05-05T20:08:50.258Z,13.90
2023-05-05T20:11:17.154Z,13.86
2023-05-05T20:13:44.104Z,13.81
2023-05-05T20:16:11.899Z,13.79
2023-05-05T20:18:39.028Z,13.77
2023-05-05T20:21:06.182Z,13.74
2023-05-05T20:23:33.866Z,13.71
2023-05-05T20:26:00.833Z,13.65
2023-05-05T20:28:27.864Z,13.60
2023-05-05T20:30:54.732Z,13.53
2023-05-05T20:33:21.595Z,13.47
2023-05-05T20:35:48.513Z,13.40
2023-05-05T20:38:15.347Z,13.34
2023-05-05T20:40:42.323Z,13.27
2023-05-05T20:43:09.262Z,13.21
2023-05-05T20:45:37.388Z,13.17
2023-05-05T20:48:05.595Z,13.12
2023-05-05T20:50:32.980Z,13.06
2023-05-05T20:53:00.127Z,13.00
2023-05-05T20:55:27.005Z,12.96
2023-05-05T20:57:54.310Z,12.92
2023-05-05T21:00:21.565Z,12.85
2023-05-05T21:02:48.606Z,12.79
2023-05-05T21:05:15.678Z,12.75
2023-05-05T21:07:42.516Z,12.69
2023-05-05T21:10:10.180Z,12.65
2023-05-05T21:12:37.411Z,12.60
2023-05-05T21:15:04.977Z,12.54
2023-05-05T21:17:31.929Z,12.50
2023-05-05T21:19:58.963Z,12.43
2023-05-05T21:22:26.030Z,12.40
2023-05-05T21:24:54.597Z,12.37
2023-05-05T21:27:21.642Z,12.27
2023-05-05T21:29:50.861Z,12.17
2023-05-05T21:32:17.829Z,12.09
2023-05-05T21:34:44.959Z,12.05
2023-05-05T21:37:12.235Z,12.04
2023-05-05T21:39:39.278Z,12.04
2023-05-05T21:42:06.228Z,12.03
2023-05-05T21:44:33.069Z,11.99
2023-05-05T21:47:00.024Z,11.95
2023-05-05T21:49:26.848Z,11.86
2023-05-05T21:51:53.818Z,11.79
2023-05-05T21:54:20.625Z,11.77
2023-05-05T21:56:47.518Z,11.76
2023-05-05T21:59:16.516Z,11.75
2023-05-05T22:01:44.139Z,11.73
2023-05-05T22:04:11.049Z,11.68
2023-05-05T22:06:37.883Z,11.65
2023-05-05T22:09:04.700Z,11.63
2023-05-05T22:11:31.543Z,11.61
2023-05-05T22:13:58.432Z,11.55
2023-05-05T22:16:25.530Z,11.45
2023-05-05T22:18:52.642Z,11.40
2023-05-05T22:21:21.233Z,11.37
2023-05-05T22:23:48.153Z,11.33
2023-05-05T22:26:15.045Z,11.29
2023-05-05T22:28:41.973Z,11.25
2023-05-05T22:31:08.999Z,11.22
2023-05-05T22:33:36.299Z,11.22
2023-05-05T22:36:03.217Z,11.22
2023-05-05T22:38:30.190Z,11.22
2023-05-05T22:40:57.109Z,11.16
2023-05-05T22:43:23.991Z,11.06
2023-05-05T22:45:51.289Z,11.02
2023-05-05T22:48:18.208Z,11.00
2023-05-05T22:50:45.784Z,10.96
2023-05-05T22:53:12.723Z,10.91
2023-05-05T22:55:39.675Z,10.86
2023-05-05T22:58:06.553Z,10.84
2023-05-05T23:00:33.472Z,10.81
2023-05-05T23:03:00.796Z,10.79
2023-05-05T23:05:27.887Z,10.75
2023-05-05T23:07:54.840Z,10.69
2023-05-05T23:10:21.799Z,10.66
2023-05-05T23:12:48.661Z,10.65
2023-05-05T23:15:15.902Z,10.63
2023-05-05T23:17:42.765Z,10.59
2023-05-05T23:20:12.161Z,10.55
2023-05-05T23:22:39.028Z,10.52
2023-05-05T23:25:06.653Z,10.49
2023-05-05T23:27:33.543Z,10.45
2023-05-05T23:30:00.655Z,10.46
2023-05-05T23:32:27.652Z,10.46
2023-05-05T23:34:54.473Z,10.46
2023-05-05T23:37:21.434Z,10.46
2023-05-05T23:39:48.264Z,10.47
2023-05-05T23:42:15.221Z,10.49
2023-05-05T23:44:42.180Z,10.49
2023-05-05T23:47:09.128Z,10.47
2023-05-05T23:49:36.693Z,10.45
2023-05-05T23:52:03.645Z,10.47
2023-05-05T23:54:30.696Z,10.47
2023-05-05T23:56:58.902Z,10.47
2023-05-05T23:59:26.341Z,10.45
